Airfield :







YOU CAN JOIN US ON...

 
LOGIN :

Register | Disclaimer

   EN    FR    IT 

 









Legend :    VFR   Marginal VFR   IFR   Intensive IFR   Very Intensive IFR
Visi :
Ceiling :
>= 8 km
>= 3000ft
5 to 8 km
1000 to 3000 ft
1500m to 5 km
500 to 1000 ft
800 to 1500m
200 to 500 ft
< 800m
< 200 ft
Symbols :   Thunderstorms  Fog  Heavy snow  Heavy precipitations  Wind > 20 kt






- Airport Elevation : 160 ft
- IATA code : YYG


CYYG - Charlottetown

CURRENT METAR :
  • 161800Z 32007KT 280V340 15SM FEW030 BKN240 18/11 A3025 RMK CF1CS7 CF TR HALO SLP246 DENSITY ALT 200FT

EXPIRED METARs :
  • 161700Z 35006KT 15SM FEW022 BKN240 18/10 A3024 RMK CF1CS7 CF TR HALO SLP243 DENSITY ALT 200FT
  • 161600Z 36011KT 15SM FEW022 BKN240 18/13 A3022 RMK CF1CS6 HALO SLP237 DENSITY ALT 300FT

TAF TAF CYYG
Valid from the 16 at 18:00 until the 17 at 06:00 UTC


161738Z 1618/1706 35012KT P6SM FEW015
BECMG 1622/1624 VRB03KT
FM170500 VRB03KT P6SM SKC
TEMPO 1705/1706 4SM BR SCT001
PROB30 1705/1706 1SM BR BKN001 RMK NXT FCST BY 170000Z
CZQM FIR / North America



MET'MAP, your aeronautical weather chart ! - Copyright ORBIFLY December 2007 - Disclaimer

ORBIFLY MET'MAP TEAM :

Programming & Development : Alexandra Zaïnal
Concept & original design : Baudouin d'Aumeries
Assistance for programming : Marc-Olivier Méhu
Technical & hardware support : Manuel Goepfert

Contact : metmap@orbifly.com




SOURCES & CREDITS :

   NOAA